Latest Weather Observations for Groote Eylandt Airport

IDD60801

Issued at 11:05 am CST Friday 1 August 2014 (issued every 30 minutes, with the page automatically refreshed every 10 minutes)

About weather observations | Map of weather stations | Latest weather observations for NT | Other Formats
Station Details ID: 014518 Name: GROOTE EYLANDT AIRPORT Lat: -13.97 Lon: 136.46 Height: 13.7 m
Data from the previous 72 hours. | See also: Recent months at Groote Eylandt Airport
Date/Time
CST
Temp
°C
App
Temp
°C
Dew
Point
Rel
Hum
%
Delta-T
°C
Wind Press
QNH
hPa
Press
MSL
hPa
Rain
since 9 am
mm
Dir
 
Spd
km/h
Gust
km/h
Spd
kts
Gust
kts
01/11:00am 28.6 27.4 17.5 51 7.0 E 20 26 11 14 1016.3 - 0.0
01/10:30am 28.8 30.4 19.1 55 6.3 E 9 17 5 9 1016.5 - 0.0
01/10:00am 28.0 30.2 19.2 58 5.7 E 6 11 3 6 1016.6 - 0.0
01/09:30am 26.9 29.2 19.5 64 4.8 ESE 6 9 3 5 1016.5 - 0.0
01/09:00am 25.3 28.3 20.8 76 3.0 ESE 6 7 3 4 1016.2 1016.1 0.0
01/08:30am 22.5 25.7 20.6 89 1.2 ESE 4 6 2 3 1015.8 - 0.0
01/08:00am 19.7 22.6 19.0 96 0.4 E 2 6 1 3 1015.4 - 0.0
01/07:30am 17.2 19.6 16.9 98 0.2 CALM 0 0 0 0 1015.2 - 0.0
01/07:00am 16.0 17.9 15.7 98 0.2 CALM 0 0 0 0 1014.9 - 0.0
01/06:30am 16.0 17.9 15.7 98 0.2 CALM 0 0 0 0 1014.6 - 0.0
01/06:23am 16.1 18.0 15.8 98 0.2 CALM 0 0 0 0 1014.6 - 0.0
01/06:15am 16.1 18.0 15.8 98 0.2 CALM 0 0 0 0 1014.6 - 0.0
01/06:00am 16.3 18.3 16.0 98 0.2 E 0 0 0 0 1014.5 1014.4 0.0
01/05:49am 16.4 18.4 16.1 98 0.2 CALM 0 0 0 0 1014.4 - 0.0
01/05:30am 16.5 18.6 16.2 98 0.2 CALM 0 0 0 0 1014.3 - 0.0
01/05:23am 16.5 18.6 16.2 98 0.2 CALM 0 0 0 0 1014.2 - 0.0
01/05:20am 16.5 18.6 16.2 98 0.2 CALM 0 0 0 0 1014.2 - 0.0
01/05:00am 16.6 18.7 16.3 98 0.2 CALM 0 0 0 0 1014.2 - 0.0
01/04:45am 16.9 19.1 16.6 98 0.2 CALM 0 0 0 0 1014.2 - 0.0
01/04:30am 17.0 19.3 16.7 98 0.2 CALM 0 0 0 0 1014.1 - 0.0
01/04:26am 16.9 19.1 16.6 98 0.2 CALM 0 0 0 0 1014.0 - 0.0
01/04:00am 17.0 19.2 16.5 97 0.3 CALM 0 0 0 0 1013.9 - 0.0
01/03:30am 17.3 19.6 16.8 97 0.3 E 0 0 0 0 1013.8 - 0.0
01/03:00am 17.5 19.9 16.9 96 0.4 CALM 0 0 0 0 1013.8 1013.7 0.0
01/02:30am 17.8 20.1 16.8 94 0.6 CALM 0 0 0 0 1014.0 - 0.0
01/02:00am 18.1 20.5 17.1 94 0.6 CALM 0 0 0 0 1014.3 - 0.0
01/01:30am 18.1 20.5 17.1 94 0.6 CALM 0 0 0 0 1014.5 - 0.0
01/01:00am 18.5 20.6 17.3 93 0.7 E 2 6 1 3 1014.8 - 0.0
01/12:30am 18.6 21.2 17.4 93 0.7 CALM 0 4 0 2 1014.9 - 0.0
01/12:00am 19.0 21.7 17.7 92 0.8 CALM 0 6 0 3 1015.0 1014.9 0.0
 
Date/Time
CST
Temp
°C
App
Temp
°C
Dew
Point
Rel
Hum
%
Delta-T
°C
Wind Press
QNH
hPa
Press
MSL
hPa
Rain
since 9 am
mm
Dir
 
Spd
km/h
Gust
km/h
Spd
kts
Gust
kts
31/11:30pm 19.9 23.0 18.6 92 0.8 CALM 0 0 0 0 1015.3 - 0.0
31/11:00pm 19.8 22.8 18.5 92 0.8 CALM 0 0 0 0 1015.5 - 0.0
31/10:30pm 20.0 23.0 18.5 91 0.9 CALM 0 0 0 0 1015.6 - 0.0
31/10:00pm 20.4 23.5 18.7 90 1.1 CALM 0 0 0 0 1015.7 - 0.0
31/09:30pm 20.9 24.2 19.2 90 1.1 CALM 0 0 0 0 1015.7 - 0.0
31/09:00pm 21.4 24.9 19.5 89 1.2 CALM 0 0 0 0 1015.4 1015.3 0.0
31/08:30pm 21.8 25.3 19.5 87 1.5 CALM 0 0 0 0 1015.2 - 0.0
31/08:00pm 22.5 26.1 19.7 84 1.8 CALM 0 0 0 0 1014.9 - 0.0
31/07:30pm 23.2 25.8 20.0 82 2.1 E 6 7 3 4 1014.6 - 0.0
31/07:00pm 24.2 26.4 20.3 79 2.5 NE 9 11 5 6 1014.3 - 0.0
31/06:30pm 24.7 26.3 20.0 75 3.0 ENE 11 13 6 7 1014.0 - 0.0
31/06:00pm 25.4 27.1 20.2 73 3.4 ENE 11 15 6 8 1013.9 1013.8 0.0
31/05:30pm 26.2 27.7 20.5 71 3.7 NE 13 17 7 9 1013.6 - 0.0
31/05:00pm 26.5 29.7 21.3 73 3.4 NNE 6 9 3 5 1013.5 - 0.0
31/04:30pm 26.4 30.2 21.6 75 3.2 SW 4 7 2 4 1013.2 - 0.0
31/04:00pm 25.9 28.9 21.3 76 3.0 S 7 13 4 7 1013.2 - 0.0
31/03:30pm 25.5 27.7 21.2 77 2.8 SSW 11 20 6 11 1013.3 - 0.0
31/03:00pm 26.1 28.0 21.3 75 3.2 S 13 17 7 9 1013.5 1013.4 0.0
31/02:30pm 26.4 28.1 20.9 72 3.6 SSW 13 22 7 12 1013.8 - 0.0
31/02:00pm 27.8 29.7 21.3 67 4.3 W 13 17 7 9 1014.2 - 0.0
31/01:30pm 26.7 28.3 20.8 70 3.9 W 13 19 7 10 1014.6 - 0.0
31/01:00pm 27.3 28.6 21.6 71 3.8 W 17 22 9 12 1014.9 - 0.0
31/12:30pm 26.0 27.8 21.2 75 3.2 W 13 17 7 9 1015.2 - 0.0
31/12:03pm 26.3 27.7 20.4 70 3.9 WSW 13 20 7 11 1015.6 - 0.0
31/12:00pm 26.3 27.5 19.9 68 4.2 WNW 13 20 7 11 1015.6 1015.5 0.0
31/11:43am 28.7 30.5 19.6 58 5.9 NNE 9 15 5 8 1015.9 - 0.0
31/11:30am 28.0 30.3 19.8 61 5.3 SW 7 17 4 9 1015.8 - 0.0
31/11:09am 26.7 29.0 19.8 66 4.5 ESE 7 15 4 8 1016.3 - 0.0
31/11:00am 27.3 29.4 20.1 64 4.7 E 9 13 5 7 1016.4 - 0.0
31/10:46am 26.5 28.6 20.1 68 4.2 E 9 17 5 9 1016.6 - 0.0
31/10:38am 26.4 29.1 20.7 71 3.7 E 7 17 4 9 1016.6 - 0.0
31/10:30am 26.0 28.7 20.6 72 3.5 ENE 7 13 4 7 1016.7 - 0.0
31/10:25am 26.3 29.1 20.8 71 3.6 ENE 7 13 4 7 - - 0.0
31/10:18am 25.8 28.2 20.8 74 3.3 ENE 9 11 5 6 1016.8 - 0.0
31/10:01am 25.4 28.4 21.3 78 2.7 E 7 9 4 5 1016.9 - 0.0
31/10:00am 25.2 28.1 21.1 78 2.7 E 7 9 4 5 1016.9 - 0.0
31/09:39am 24.2 27.8 21.3 84 1.9 ENE 4 9 2 5 1017.0 - 0.0
31/09:30am 23.5 26.4 21.0 86 1.6 E 7 11 4 6 1017.0 - 0.0
31/09:00am 22.7 26.1 22.0 96 0.5 E 7 9 4 5 1016.8 1016.7 0.0
31/08:53am 22.6 26.2 22.1 97 0.3 ESE 6 9 3 5 1016.8 - 0.0
31/08:30am 21.6 25.3 21.4 99 0.1 ESE 4 7 2 4 1016.6 - 0.0
31/08:15am 21.1 24.0 21.1 100 0.0 E 7 7 4 4 1016.7 - 0.0
31/08:00am 20.7 24.4 20.7 100 0.0 ESE 2 7 1 4 1016.6 - 0.0
31/07:50am 20.4 24.3 20.4 100 0.0 CALM 0 0 0 0 1016.5 - 0.0
31/07:30am 20.0 23.7 20.0 100 0.0 CALM 0 0 0 0 1016.3 - 0.0
31/07:00am 19.2 22.5 19.2 100 0.0 CALM 0 0 0 0 1015.9 - 0.0
31/06:59am 19.2 22.5 19.2 100 0.0 CALM 0 0 0 0 1015.9 - 0.0
31/06:43am 18.9 22.0 18.7 99 0.1 CALM 0 0 0 0 1015.8 - 0.0
31/06:30am 18.9 22.0 18.7 99 0.1 CALM 0 0 0 0 1015.7 - 0.0
31/06:24am 18.9 22.0 18.7 99 0.1 CALM 0 0 0 0 1015.6 - 0.0
31/06:12am 18.8 21.9 18.6 99 0.1 CALM 0 0 0 0 1015.5 - 0.0
31/06:00am 18.9 22.0 18.7 99 0.1 CALM 0 0 0 0 1015.3 1015.2 0.0
31/05:30am 19.0 22.3 19.0 100 0.0 CALM 0 0 0 0 1015.1 - 0.0
31/05:00am 18.5 21.4 18.3 99 0.1 CALM 0 0 0 0 1014.7 - 0.0
31/04:48am 18.8 22.0 18.8 100 0.0 CALM 0 0 0 0 1014.6 - 0.0
31/04:30am 18.2 21.0 18.0 99 0.1 CALM 0 0 0 0 1014.6 - 0.0
31/04:11am 17.7 20.3 17.5 99 0.1 CALM 0 0 0 0 1014.6 - 0.0
31/04:07am 17.5 20.0 17.3 99 0.1 CALM 0 0 0 0 1014.6 - 0.0
31/04:00am 17.3 19.7 17.0 98 0.2 CALM 0 0 0 0 1014.6 - 0.0
31/03:41am 16.7 18.8 16.2 97 0.3 CALM 0 0 0 0 1014.5 - 0.0
31/03:32am 16.8 18.9 16.3 97 0.3 CALM 0 0 0 0 1014.5 - 0.0
31/03:30am 17.0 19.2 16.5 97 0.3 CALM 0 0 0 0 1014.5 - 0.0
31/03:00am 16.7 18.6 15.7 94 0.6 CALM 0 0 0 0 1014.5 1014.4 0.0
31/02:54am 16.6 18.4 15.6 94 0.6 CALM 0 0 0 0 1014.5 - 0.0
31/02:30am 17.1 19.2 16.3 95 0.5 CALM 0 0 0 0 1014.6 - 0.0
31/02:09am 17.0 19.0 15.9 93 0.6 CALM 0 0 0 0 1014.9 - 0.0
31/02:00am 17.1 19.1 16.0 93 0.6 CALM 0 0 0 0 1015.0 - 0.0
31/01:30am 17.5 19.7 16.4 93 0.7 CALM 0 0 0 0 1015.3 - 0.0
31/01:00am 17.8 20.0 16.5 92 0.8 CALM 0 0 0 0 1015.4 - 0.0
31/12:30am 18.1 20.4 16.8 92 0.8 CALM 0 0 0 0 1015.5 - 0.0
31/12:00am 18.6 21.0 16.9 90 1.0 CALM 0 0 0 0 1015.7 1015.6 0.0
 
Date/Time
CST
Temp
°C
App
Temp
°C
Dew
Point
Rel
Hum
%
Delta-T
°C
Wind Press
QNH
hPa
Press
MSL
hPa
Rain
since 9 am
mm
Dir
 
Spd
km/h
Gust
km/h
Spd
kts
Gust
kts
30/11:30pm 18.9 21.5 17.4 91 0.9 CALM 0 0 0 0 1015.7 - 0.0
30/11:00pm 19.3 21.9 17.6 90 1.0 CALM 0 0 0 0 1015.8 - 0.0
30/10:30pm 19.6 22.3 17.7 89 1.2 CALM 0 0 0 0 1015.9 - 0.0
30/10:00pm 20.3 23.2 18.2 88 1.3 CALM 0 0 0 0 1015.8 - 0.0
30/09:30pm 20.8 23.9 18.6 87 1.4 CALM 0 0 0 0 1015.8 - 0.0
30/09:00pm 21.3 23.4 18.9 86 1.5 ESE 6 7 3 4 1015.8 1015.7 0.0
30/08:30pm 21.9 23.9 18.7 82 2.0 E 6 7 3 4 1015.8 - 0.0
30/08:00pm 23.0 25.3 19.4 80 2.3 E 6 7 3 4 1015.6 - 0.0
30/07:30pm 23.6 25.6 19.1 76 2.9 E 7 9 4 5 1015.1 - 0.0
30/07:00pm 24.7 26.4 19.3 72 3.5 E 9 11 5 6 1014.9 - 0.0
30/06:30pm 25.5 26.8 18.4 65 4.5 E 9 11 5 6 1014.6 - 0.0
30/06:00pm 26.8 27.4 17.6 57 5.8 E 11 17 6 9 1014.4 1014.3 0.0
30/05:30pm 27.2 27.2 17.1 54 6.3 ESE 13 19 7 10 1014.4 - 0.0
30/05:00pm 28.1 27.9 17.6 53 6.6 NE 15 22 8 12 1014.2 - 0.0
30/04:30pm 28.3 27.3 17.5 52 6.8 ENE 19 26 10 14 1013.9 - 0.0
30/04:14pm 28.8 28.6 18.6 54 6.6 ENE 17 22 9 12 1013.8 - 0.0
30/04:03pm 29.1 28.5 18.5 52 6.8 E 19 26 10 14 1013.7 - 0.0
30/04:00pm 28.7 28.0 18.2 53 6.7 ENE 19 26 10 14 1013.7 - 0.0
30/03:58pm 28.4 27.6 17.9 53 6.7 ENE 19 26 10 14 1013.7 - 0.0
30/03:30pm 29.6 30.6 17.8 49 7.5 E 9 20 5 11 1013.6 - 0.0
30/03:00pm 29.2 29.0 17.7 50 7.3 ENE 15 22 8 12 1013.7 1013.6 0.0
30/02:41pm 29.1 28.5 17.6 50 7.3 E 17 26 9 14 1013.9 - 0.0
30/02:30pm 29.1 29.4 17.0 48 7.6 E 11 24 6 13 1014.0 - 0.0
30/02:00pm 29.4 29.8 18.2 51 7.2 E 13 20 7 11 1014.3 - 0.0
30/01:30pm 28.7 27.9 17.2 49 7.2 E 17 24 9 13 1014.7 - 0.0
30/01:24pm 29.5 29.0 17.7 49 7.5 E 17 26 9 14 1014.8 - 0.0
30/01:00pm 29.0 29.0 18.1 51 7.0 E 15 28 8 15 1015.1 - 0.0
30/12:53pm 29.3 29.4 18.4 51 7.0 E 15 24 8 13 1015.3 - 0.0
30/12:30pm 29.2 28.1 17.7 50 7.3 E 20 28 11 15 1015.6 - 0.0
30/12:00pm 28.6 27.7 17.8 52 6.8 E 19 28 10 15 1016.0 1015.9 0.0
30/11:30am 28.1 28.7 18.5 56 6.1 ESE 13 24 7 13 1016.5 - 0.0
30/11:00am 27.7 26.5 18.4 57 5.9 E 22 32 12 17 1016.8 - 0.0
30/10:30am 26.8 27.9 19.7 65 4.6 SE 13 20 7 11 1017.2 - 0.0
30/10:00am 25.8 26.8 19.4 67 4.1 ESE 13 20 7 11 1017.4 - 0.0
30/09:32am 25.2 26.9 20.2 74 3.3 SE 11 17 6 9 1017.5 - 0.0
30/09:30am 25.1 26.3 19.9 73 3.4 SE 13 17 7 9 1017.5 - 0.0
30/09:13am 24.7 26.4 20.2 76 2.9 SE 11 20 6 11 1017.5 - 0.0
30/09:00am 24.6 27.0 20.9 80 2.4 SE 9 13 5 7 1017.5 1017.4 0.0
30/08:30am 23.8 26.8 21.3 86 1.6 E 7 11 4 6 1017.3 - 0.0
30/08:00am 22.4 25.7 20.7 90 1.1 E 4 9 2 5 1017.0 - 0.0
30/07:30am 19.5 22.7 18.8 96 0.4 CALM 0 0 0 0 1016.6 - 0.0
30/07:00am 17.1 18.2 16.6 97 0.3 E 6 7 3 4 1016.3 - 0.0
30/06:58am 17.1 18.2 16.6 97 0.3 E 6 7 3 4 1016.2 - 0.0
30/06:30am 16.6 18.8 16.4 99 0.1 CALM 0 0 0 0 1015.9 - 0.0
30/06:00am 16.0 17.9 15.8 99 0.1 CALM 0 0 0 0 1015.7 1015.6 0.0
30/05:30am 15.8 16.9 15.5 98 0.2 E 4 7 2 4 1015.5 - 0.0
30/05:09am 15.8 16.5 15.5 98 0.2 E 6 7 3 4 1015.3 - 0.0
30/05:05am 15.8 16.3 15.5 98 0.2 E 7 7 4 4 1015.3 - 0.0
30/05:00am 15.9 16.4 15.6 98 0.2 E 7 7 4 4 1015.3 - 0.0
30/04:39am 16.1 18.1 15.9 99 0.1 CALM 0 0 0 0 1015.2 - 0.0
30/04:30am 16.2 18.2 16.0 99 0.1 CALM 0 0 0 0 1015.1 - 0.0
30/04:26am 16.3 18.3 16.1 99 0.1 CALM 0 0 0 0 1015.1 - 0.0
30/04:00am 16.5 18.6 16.3 99 0.1 CALM 0 0 0 0 1014.9 - 0.0
30/03:34am 16.6 18.6 16.0 96 0.4 CALM 0 0 0 0 1014.9 - 0.0
30/03:30am 16.6 18.5 15.8 95 0.5 CALM 0 0 0 0 1014.8 - 0.0
30/03:12am 16.5 18.3 15.5 94 0.6 CALM 0 0 0 0 1014.8 - 0.0
30/03:00am 16.7 18.6 15.7 94 0.6 CALM 0 0 0 0 1014.9 1014.8 0.0
30/02:30am 16.9 18.9 15.9 94 0.6 CALM 0 0 0 0 1015.1 - 0.0
30/02:00am 17.1 19.2 16.3 95 0.5 CALM 0 0 0 0 1015.4 - 0.0
30/01:30am 17.6 19.8 16.5 93 0.7 CALM 0 0 0 0 1015.7 - 0.0
30/01:00am 17.9 20.1 16.6 92 0.8 CALM 0 0 0 0 1015.9 - 0.0
30/12:30am 18.2 20.6 16.9 92 0.8 CALM 0 0 0 0 1016.1 - 0.0
30/12:00am 18.6 21.0 17.1 91 0.9 CALM 0 0 0 0 1016.2 1016.1 0.0
 
Date/Time
CST
Temp
°C
App
Temp
°C
Dew
Point
Rel
Hum
%
Delta-T
°C
Wind Press
QNH
hPa
Press
MSL
hPa
Rain
since 9 am
mm
Dir
 
Spd
km/h
Gust
km/h
Spd
kts
Gust
kts
29/11:30pm 18.8 21.4 17.5 92 0.8 CALM 0 0 0 0 1016.1 - 0.0
29/11:00pm 19.0 21.6 17.5 91 0.9 CALM 0 0 0 0 1016.3 - 0.0
29/10:30pm 19.4 22.1 17.7 90 1.0 CALM 0 0 0 0 1016.5 - 0.0
29/10:00pm 19.9 22.7 18.0 89 1.2 CALM 0 4 0 2 1016.6 - 0.0
29/09:30pm 20.6 22.5 18.5 88 1.3 ENE 6 7 3 4 1016.6 - 0.0
29/09:00pm 20.7 23.7 18.5 87 1.4 CALM 0 0 0 0 1016.7 1016.6 0.0
29/08:30pm 21.5 24.5 18.5 83 1.9 CALM 0 0 0 0 1016.9 - 0.0
29/08:00pm 22.3 24.7 18.7 80 2.3 E 4 6 2 3 1016.8 - 0.0
29/07:30pm 22.9 25.3 18.9 78 2.5 ESE 4 6 2 3 1016.5 - 0.0
29/07:00pm 23.9 25.6 18.5 72 3.4 E 7 9 4 5 1016.1 - 0.0
29/06:30pm 24.9 26.6 18.6 68 4.0 ESE 7 11 4 6 1015.9 - 0.0
29/06:00pm 26.0 26.8 18.2 62 4.9 E 11 17 6 9 1015.5 1015.4 0.0
29/05:30pm 27.2 26.7 17.9 56 5.9 E 17 22 9 12 1015.4 - 0.0
29/05:00pm 27.7 27.6 16.9 51 6.7 ESE 13 20 7 11 1015.2 - 0.0
29/04:30pm 28.6 27.9 16.5 48 7.5 ESE 15 20 8 11 1015.0 - 0.0
29/04:00pm 28.2 28.2 17.1 51 7.0 ESE 13 20 7 11 1014.9 - 0.0
29/03:30pm 28.8 28.5 17.3 49 7.3 ESE 15 26 8 14 1014.9 - 0.0
29/03:00pm 29.6 28.7 17.8 49 7.5 E 19 30 10 16 1014.8 1014.7 0.0
29/02:30pm 28.6 27.2 16.5 48 7.5 ESE 19 28 10 15 1015.0 - 0.0
29/02:00pm 29.1 28.8 18.2 51 7.0 E 17 26 9 14 1015.3 - 0.0
29/01:30pm 27.9 27.5 18.0 55 6.3 ESE 17 30 9 16 1015.9 - 0.0
29/01:00pm 28.8 27.9 18.3 53 6.7 E 20 28 11 15 1016.2 - 0.0
29/12:30pm 27.9 27.7 18.6 57 6.0 ESE 17 26 9 14 1016.6 - 0.0
29/12:00pm 28.4 28.7 18.8 56 6.2 ESE 15 26 8 14 1016.9 1016.8 0.0
29/11:30am 27.8 27.2 17.6 53 6.4 ESE 17 30 9 16 1017.3 - 0.0

Other Formats:

Comma delimited format used in spreadsheet applications
http://www.bom.gov.au/fwo/IDD60801/IDD60801.94153.axf

JavaScript Object Notation format (JSON) in row-major order
http://www.bom.gov.au/fwo/IDD60801/IDD60801.94153.json